createdAt,value
2018-06-04T00:00:34.861Z,85.16
2018-06-04T00:01:35.122Z,85.74
2018-06-04T00:02:35.127Z,85.16
2018-06-04T00:03:34.881Z,85.64
2018-06-04T00:04:34.868Z,85.74
2018-06-04T00:05:35.130Z,85.64
2018-06-04T00:06:34.872Z,85.64
2018-06-04T00:07:34.878Z,85.93
2018-06-04T00:08:35.144Z,85.93
2018-06-04T00:09:35.158Z,85.83
2018-06-04T00:10:35.140Z,86.22
2018-06-04T00:11:35.160Z,86.12
2018-06-04T00:12:35.149Z,85.93
2018-06-04T00:13:34.898Z,86.85
2018-06-04T00:14:35.155Z,85.83
2018-06-04T00:15:34.895Z,86.51
2018-06-04T00:16:34.896Z,86.6
2018-06-04T00:17:35.154Z,86.22
2018-06-04T00:18:35.171Z,86.22
2018-06-04T00:19:35.164Z,86.94
2018-06-04T00:20:34.900Z,87.04
2018-06-04T00:21:35.163Z,86.94
2018-06-04T00:22:34.937Z,86.94
2018-06-04T00:23:35.167Z,86.75
2018-06-04T00:24:34.936Z,86.85
2018-06-04T00:25:35.171Z,86.94
2018-06-04T00:26:35.173Z,87.33
2018-06-04T00:27:35.178Z,87.33
2018-06-04T00:28:34.918Z,87.62
2018-06-04T00:29:34.927Z,87.81
2018-06-04T00:30:34.929Z,87.81
2018-06-04T00:31:35.200Z,87.62
2018-06-04T00:32:35.187Z,87.9
2018-06-04T00:33:35.187Z,87.81
2018-06-04T00:34:34.945Z,88.48
2018-06-04T00:35:35.191Z,88.57
2018-06-04T00:36:35.198Z,88.57
2018-06-04T00:37:35.195Z,88.19
2018-06-04T00:38:34.939Z,88.29
2018-06-04T00:39:34.939Z,88.77
2018-06-04T00:40:35.208Z,88.39
2018-06-04T00:41:35.210Z,88.39
2018-06-04T00:42:34.947Z,88.77
2018-06-04T00:43:34.946Z,88.67
2018-06-04T00:44:35.204Z,88.67
2018-06-04T00:45:34.950Z,88.87
2018-06-04T00:46:35.210Z,88.96
2018-06-04T00:47:34.969Z,89.44
2018-06-04T00:48:34.968Z,89.25
2018-06-04T00:49:34.993Z,89.83
2018-06-04T00:50:35.232Z,89.69
2018-06-04T00:51:34.972Z,89.92
2018-06-04T00:52:35.228Z,90.12
2018-06-04T00:53:35.224Z,90.02
2018-06-04T00:54:34.974Z,89.83
2018-06-04T00:55:35.232Z,89.92
2018-06-04T00:56:35.229Z,89.83
2018-06-04T00:57:35.245Z,89.78
2018-06-04T00:58:34.978Z,89.5
2018-06-04T00:59:34.971Z,89.54
2018-06-04T01:00:34.976Z,90.17
2018-06-04T01:01:34.980Z,90.07
2018-06-04T01:02:35.235Z,90.75
2018-06-04T01:03:35.244Z,90.55
2018-06-04T01:04:34.992Z,90.55
2018-06-04T01:05:35.013Z,90.75
2018-06-04T01:06:35.251Z,90.94
2018-06-04T01:07:35.245Z,91.52
2018-06-04T01:08:35.012Z,91.32
2018-06-04T01:09:35.000Z,91.32
2018-06-04T01:10:35.261Z,91.9
2018-06-04T01:11:35.010Z,91.61
2018-06-04T01:12:35.005Z,91.8
2018-06-04T01:13:35.258Z,91.52
2018-06-04T01:14:35.008Z,92.09
2018-06-04T01:15:35.009Z,91.9
2018-06-04T01:16:35.019Z,92.19
2018-06-04T01:17:35.273Z,91.99
2018-06-04T01:18:35.016Z,92.19
2018-06-04T01:19:35.265Z,92.29
2018-06-04T01:20:35.275Z,92.29
2018-06-04T01:21:35.290Z,92.57
2018-06-04T01:22:35.289Z,92.24
2018-06-04T01:23:35.022Z,92.67
2018-06-04T01:24:35.021Z,93.05
2018-06-04T01:25:35.279Z,93.05
2018-06-04T01:26:35.361Z,93.77
2018-06-04T01:27:35.334Z,93.39
2018-06-04T01:28:35.022Z,93.44
2018-06-04T01:29:35.280Z,93.58
2018-06-04T01:30:35.024Z,92.96
2018-06-04T01:31:35.023Z,92.72
2018-06-04T01:32:35.028Z,92.33
2018-06-04T01:33:35.036Z,92.33
2018-06-04T01:34:35.056Z,92.91
2018-06-04T01:35:35.043Z,93.49
2018-06-04T01:36:35.292Z,93.44
2018-06-04T01:37:35.049Z,93.49
2018-06-04T01:38:35.296Z,94.16
2018-06-04T01:39:35.035Z,93.96
2018-06-04T01:40:35.300Z,94.64
2018-06-04T01:41:35.049Z,94.64
2018-06-04T01:42:35.315Z,94.45
2018-06-04T01:43:35.049Z,94.54
2018-06-04T01:44:35.068Z,94.83
2018-06-04T01:45:35.305Z,94.64
2018-06-04T01:46:35.304Z,94.73
2018-06-04T01:47:35.308Z,94.35
2018-06-04T01:48:35.049Z,95.21
2018-06-04T01:49:35.321Z,95.21
2018-06-04T01:50:35.309Z,95.31
2018-06-04T01:51:35.055Z,95.5
2018-06-04T01:52:35.357Z,95.4
2018-06-04T01:53:35.318Z,95.21
2018-06-04T01:54:35.062Z,95.7
2018-06-04T01:55:35.319Z,95.89
2018-06-04T01:56:35.325Z,95.89
2018-06-04T01:57:35.325Z,95.89
2018-06-04T01:58:35.073Z,95.98
2018-06-04T01:59:35.064Z,95.79
2018-06-04T02:00:35.070Z,95.79
2018-06-04T02:01:35.080Z,95.98
2018-06-04T02:02:35.326Z,96.17
2018-06-04T02:03:35.074Z,96.37
2018-06-04T02:04:35.344Z,96.56
2018-06-04T02:05:35.338Z,96.37
2018-06-04T02:06:35.341Z,96.08
2018-06-04T02:07:35.081Z,96.85
2018-06-04T02:08:35.348Z,97.04
2018-06-04T02:09:35.083Z,96.85
2018-06-04T02:10:35.352Z,97.04
2018-06-04T02:11:35.353Z,96.94
2018-06-04T02:12:35.092Z,97.14
2018-06-04T02:13:35.092Z,96.85
2018-06-04T02:14:35.371Z,97.19
2018-06-04T02:15:35.355Z,97.81
2018-06-04T02:16:35.355Z,97.33
2018-06-04T02:17:35.361Z,96.85
2018-06-04T02:18:35.360Z,96.99
2018-06-04T02:19:35.105Z,97.47
2018-06-04T02:20:35.358Z,97.28
2018-06-04T02:21:35.357Z,97.28
2018-06-04T02:22:35.360Z,97.86
2018-06-04T02:23:35.369Z,97.66
2018-06-04T02:24:35.361Z,97.96
2018-06-04T02:25:35.363Z,98.14
2018-06-04T02:26:35.368Z,97.76
2018-06-04T02:27:35.361Z,98.05
2018-06-04T02:28:35.369Z,98.53
2018-06-04T02:29:35.109Z,98.43
2018-06-04T02:30:35.372Z,98.72
2018-06-04T02:31:35.375Z,98.91
2018-06-04T02:32:35.371Z,98.72
2018-06-04T02:33:35.377Z,98.63
2018-06-04T02:34:35.375Z,99.4
2018-06-04T02:35:35.380Z,99.2
2018-06-04T02:36:35.380Z,99.2
2018-06-04T02:37:35.115Z,99.49
2018-06-04T02:38:35.384Z,99.4
2018-06-04T02:39:35.139Z,98.43
2018-06-04T02:40:35.382Z,98.91
2018-06-04T02:41:35.431Z,98.91
2018-06-04T02:42:35.393Z,98.63
2018-06-04T02:43:35.136Z,99.3
2018-06-04T02:44:35.135Z,98.91
2018-06-04T02:45:35.140Z,99.2
2018-06-04T02:46:35.386Z,99.4
2018-06-04T02:47:35.391Z,99.4
2018-06-04T02:48:35.130Z,99.01
2018-06-04T02:49:35.393Z,99.01
2018-06-04T02:50:35.398Z,99.58
2018-06-04T02:51:35.399Z,99.78
2018-06-04T02:52:35.135Z,99.01
2018-06-04T02:53:35.398Z,99.78
2018-06-04T02:54:35.428Z,99.99
2018-06-04T02:55:35.403Z,99.99
2018-06-04T02:56:35.459Z,99.99
2018-06-04T02:57:35.421Z,99.99
2018-06-04T02:58:35.455Z,99.87
2018-06-04T02:59:35.403Z,99.99
2018-06-04T03:00:35.413Z,99.99
2018-06-04T03:01:35.406Z,99.99
2018-06-04T03:02:35.152Z,99.99
2018-06-04T03:03:35.415Z,99.99
2018-06-04T03:04:35.419Z,99.99
2018-06-04T03:05:35.151Z,99.99
2018-06-04T03:06:35.412Z,99.99
2018-06-04T03:07:35.189Z,99.99
2018-06-04T03:08:35.410Z,99.99
2018-06-04T03:09:35.414Z,99.99
2018-06-04T03:10:35.426Z,99.99
2018-06-04T03:11:35.222Z,99.99
2018-06-04T03:12:35.156Z,99.99
2018-06-04T03:13:35.428Z,99.99
2018-06-04T03:14:35.423Z,99.99
2018-06-04T03:15:35.466Z,99.99
2018-06-04T03:16:35.164Z,99.87
2018-06-04T03:17:35.425Z,99.99
2018-06-04T03:18:35.426Z,99.99
2018-06-04T03:19:35.424Z,99.99
2018-06-04T03:20:35.430Z,99.99
2018-06-04T03:21:35.433Z,99.99
2018-06-04T03:22:35.173Z,99.99
2018-06-04T03:23:35.170Z,99.99
2018-06-04T03:24:35.435Z,99.99
2018-06-04T03:25:35.183Z,99.99
2018-06-04T03:26:35.435Z,99.99
2018-06-04T03:27:35.175Z,99.99
2018-06-04T03:28:35.476Z,99.99
2018-06-04T03:29:35.439Z,99.99
2018-06-04T03:30:35.446Z,99.99
2018-06-04T03:31:35.457Z,99.99
2018-06-04T03:32:35.443Z,99.99
2018-06-04T03:33:35.193Z,99.99
2018-06-04T03:34:35.178Z,99.99
2018-06-04T03:35:35.451Z,99.99
2018-06-04T03:36:35.206Z,99.99
2018-06-04T03:37:35.449Z,99.99
2018-06-04T03:38:35.452Z,99.99
2018-06-04T03:39:35.197Z,99.99
2018-06-04T03:40:35.197Z,99.99
2018-06-04T03:41:35.513Z,99.99
2018-06-04T03:42:35.200Z,99.99
2018-06-04T03:43:35.211Z,99.99
2018-06-04T03:44:35.473Z,99.99
2018-06-04T03:45:35.201Z,99.99
2018-06-04T03:46:35.200Z,99.99
2018-06-04T03:47:35.210Z,99.99
2018-06-04T03:48:35.461Z,99.99
2018-06-04T03:49:35.460Z,99.99
2018-06-04T03:50:35.466Z,99.99
2018-06-04T03:51:35.465Z,99.99
2018-06-04T03:52:35.470Z,99.99
2018-06-04T03:53:35.204Z,99.99
2018-06-04T03:54:35.470Z,99.99
2018-06-04T03:55:35.467Z,99.99
2018-06-04T03:56:35.529Z,99.99
2018-06-04T03:57:35.237Z,99.99
2018-06-04T03:58:35.217Z,99.21
2018-06-04T03:59:35.472Z,97.47
2018-06-04T04:00:35.214Z,96.32
2018-06-04T04:01:35.489Z,94.25
2018-06-04T04:02:35.487Z,92.47
2018-06-04T04:03:35.487Z,91.22
2018-06-04T04:04:35.488Z,90.64
2018-06-04T04:05:35.490Z,90.2
2018-06-04T04:06:35.510Z,88.38
2018-06-04T04:07:35.232Z,86.49
2018-06-04T04:08:35.498Z,84.95
2018-06-04T04:09:35.231Z,84.03
2018-06-04T04:10:35.259Z,83.26
2018-06-04T04:11:35.299Z,82.29
2018-06-04T04:12:35.508Z,82.2
2018-06-04T04:13:35.245Z,81.66
2018-06-04T04:14:35.541Z,80.51
2018-06-04T04:15:35.519Z,80.41
2018-06-04T04:16:35.553Z,79.58
2018-06-04T04:17:35.264Z,79.39
2018-06-04T04:18:35.523Z,78.42
2018-06-04T04:19:35.527Z,77.84
2018-06-04T04:20:35.540Z,78.03
2018-06-04T04:21:35.271Z,77.84
2018-06-04T04:22:35.537Z,77.65
2018-06-04T04:23:35.282Z,77.84
2018-06-04T04:24:35.555Z,77.65
2018-06-04T04:25:35.573Z,77.94
2018-06-04T04:26:35.690Z,77.75
2018-06-04T04:27:35.560Z,77.75
2018-06-04T04:28:35.564Z,77.07
2018-06-04T04:29:35.561Z,76.43
2018-06-04T04:30:35.584Z,75.85
2018-06-04T04:31:35.584Z,75.27
2018-06-04T04:32:35.587Z,74.44
2018-06-04T04:33:35.585Z,74.35
2018-06-04T04:34:35.600Z,73.28
2018-06-04T04:35:35.593Z,73.03
2018-06-04T04:36:35.666Z,72.84
2018-06-04T04:37:35.619Z,72.64
2018-06-04T04:38:35.607Z,72.45
2018-06-04T04:39:35.608Z,71.97
2018-06-04T04:40:35.358Z,70.52
2018-06-04T04:41:35.427Z,70.36
2018-06-04T04:42:35.623Z,70.07
2018-06-04T04:43:35.666Z,69.68
2018-06-04T04:44:35.634Z,69.04
2018-06-04T04:45:35.638Z,68.85
2018-06-04T04:46:35.650Z,68.17
2018-06-04T04:47:35.654Z,67.43
2018-06-04T04:48:35.661Z,67.46
2018-06-04T04:49:35.659Z,66.75
2018-06-04T04:50:35.664Z,65.82
2018-06-04T04:51:35.415Z,65.43
2018-06-04T04:52:35.440Z,64.75
2018-06-04T04:53:35.691Z,64.59
2018-06-04T04:54:35.696Z,65.08
2018-06-04T04:55:35.697Z,64.3
2018-06-04T04:56:35.711Z,64.69
2018-06-04T04:57:35.706Z,63.56
2018-06-04T04:58:35.742Z,63.37
2018-06-04T04:59:35.508Z,64.92
2018-06-04T05:00:35.477Z,64.98
2018-06-04T05:01:35.741Z,65.14
2018-06-04T05:02:35.473Z,66.69
2018-06-04T05:03:35.748Z,66.88
2018-06-04T05:04:35.751Z,67.33
2018-06-04T05:05:35.761Z,68.56
2018-06-04T05:06:35.497Z,69.3
2018-06-04T05:07:35.763Z,70.17
2018-06-04T05:08:35.821Z,71.48
2018-06-04T05:09:35.769Z,72.55
2018-06-04T05:10:35.524Z,72.64
2018-06-04T05:11:35.795Z,72.06
2018-06-04T05:12:35.525Z,71.39
2018-06-04T05:13:35.791Z,71.97
2018-06-04T05:14:35.807Z,72.26
2018-06-04T05:15:35.800Z,73.09
2018-06-04T05:16:35.809Z,73.19
2018-06-04T05:17:35.808Z,73.73
2018-06-04T05:18:35.815Z,75.09
2018-06-04T05:19:35.831Z,75.09
2018-06-04T05:20:35.832Z,75.09
2018-06-04T05:21:35.572Z,75.09
2018-06-04T05:22:35.836Z,76.4
2018-06-04T05:23:35.837Z,78.29
2018-06-04T05:24:35.846Z,78.67
2018-06-04T05:25:35.853Z,79.79
2018-06-04T05:26:39.109Z,81.04
2018-06-04T05:27:35.608Z,81.24
2018-06-04T05:28:35.611Z,82.26
2018-06-04T05:29:35.866Z,82.83
2018-06-04T05:30:35.865Z,83.12
2018-06-04T05:31:35.609Z,83.47
2018-06-04T05:32:35.871Z,84.05
2018-06-04T05:33:35.635Z,84.23
2018-06-04T05:34:35.879Z,83.85
2018-06-04T05:35:35.890Z,83.47
2018-06-04T05:36:35.632Z,83.7
2018-06-04T05:37:35.902Z,83.7
2018-06-04T05:38:35.630Z,83.99
2018-06-04T05:39:35.899Z,83.99
2018-06-04T05:40:35.932Z,83.61
2018-06-04T05:41:35.645Z,82.64
2018-06-04T05:42:35.903Z,82.16
2018-06-04T05:43:35.648Z,82.2
2018-06-04T05:44:35.918Z,80.94
2018-06-04T05:45:35.922Z,80.66
2018-06-04T05:46:35.930Z,80.37
2018-06-04T05:47:35.922Z,79.98
2018-06-04T05:48:35.933Z,79.74
2018-06-04T05:49:35.931Z,79.16
2018-06-04T05:50:35.937Z,78.67
2018-06-04T05:51:35.935Z,78.67
2018-06-04T05:52:35.958Z,78.09
2018-06-04T05:53:35.946Z,77.94
2018-06-04T05:54:35.964Z,77.55
2018-06-04T05:55:35.953Z,76.53
2018-06-04T05:56:35.975Z,73.35
2018-06-04T05:57:35.955Z,71.48
2018-06-04T05:58:35.967Z,70.17
2018-06-04T05:59:35.705Z,68.46
2018-06-04T06:00:35.978Z,67.72
2018-06-04T06:01:35.982Z,64.95
2018-06-04T06:02:35.997Z,63.53
2018-06-04T06:03:35.992Z,62.3
2018-06-04T06:04:36.012Z,60.1
2018-06-04T06:05:35.732Z,59.45
2018-06-04T06:06:35.738Z,56.89
2018-06-04T06:07:35.743Z,55.82
2018-06-04T06:08:35.750Z,56.7
2018-06-04T06:09:36.022Z,55.94
2018-06-04T06:10:36.039Z,54.88
2018-06-04T06:11:36.026Z,53.25
2018-06-04T06:12:36.034Z,53.67
2018-06-04T06:13:35.785Z,53.06
2018-06-04T06:23:14.465Z,45.71
2018-06-04T06:24:14.474Z,45.36
2018-06-04T06:25:14.754Z,46.04
2018-06-04T06:26:14.843Z,45.36
2018-06-04T06:27:14.748Z,45.75
2018-06-04T06:28:14.755Z,45.26
2018-06-04T06:29:14.757Z,43.9
2018-06-04T06:30:14.771Z,42.87
2018-06-04T06:31:14.572Z,42.21
2018-06-04T06:32:14.565Z,41.05
2018-06-04T06:33:14.782Z,41.25
2018-06-04T06:34:14.533Z,41.17
2018-06-04T06:35:14.539Z,41.27
2018-06-04T06:36:14.808Z,41.74
2018-06-04T06:37:14.815Z,42.61
2018-06-04T06:38:14.826Z,42.5
2018-06-04T06:39:14.845Z,43.28
2018-06-04T06:40:14.841Z,43.95
2018-06-04T06:41:14.860Z,44.21
2018-06-04T06:42:14.873Z,42.29
2018-06-04T06:43:14.915Z,42.21
2018-06-04T06:44:14.869Z,42.89
2018-06-04T06:45:14.944Z,42.38
2018-06-04T06:46:14.899Z,43.16
2018-06-04T06:47:14.910Z,42.68
2018-06-04T06:48:14.912Z,42.11
2018-06-04T06:49:14.667Z,41.82
2018-06-04T06:50:15.112Z,41.25
2018-06-04T06:51:14.692Z,40.09
2018-06-04T06:52:14.945Z,39.53
2018-06-04T06:53:14.700Z,38.86
2018-06-04T06:54:14.984Z,37.41
2018-06-04T06:55:14.974Z,37.73
2018-06-04T06:56:14.987Z,38.12
2018-06-04T06:57:15.003Z,38.78
2018-06-04T06:58:15.004Z,39.37
2018-06-04T06:59:15.035Z,38.78
2018-06-04T07:00:15.033Z,38.1
2018-06-04T07:01:15.032Z,37.73
2018-06-04T07:02:15.056Z,38.13
2018-06-04T07:03:15.060Z,38.02
2018-06-04T07:04:14.805Z,38.02
2018-06-04T07:05:14.816Z,37.51
2018-06-04T07:06:14.830Z,37.73
2018-06-04T07:07:14.898Z,38.49
2018-06-04T07:08:14.896Z,38.68
2018-06-04T07:09:15.116Z,39.25
2018-06-04T07:10:15.124Z,39.62
2018-06-04T07:11:15.169Z,39.82
2018-06-04T07:12:14.878Z,40.95
2018-06-04T07:13:15.251Z,41.62
2018-06-04T07:14:15.252Z,41.99
2018-06-04T07:15:15.212Z,42.94
2018-06-04T07:16:15.185Z,42.73
2018-06-04T07:17:15.213Z,44.19
2018-06-04T07:18:15.192Z,43.12
2018-06-04T07:19:14.952Z,41.87
2018-06-04T07:20:15.220Z,42.07
2018-06-04T07:21:14.964Z,42.29
2018-06-04T07:22:15.242Z,40.16
2018-06-04T07:23:15.240Z,39.51
2018-06-04T07:24:15.253Z,39.98
2018-06-04T07:25:15.258Z,40.47
2018-06-04T07:26:15.268Z,38.34
2018-06-04T07:27:15.278Z,37.69
2018-06-04T07:28:15.284Z,37.79
2018-06-04T07:29:15.039Z,38.76
2018-06-04T07:30:15.301Z,37.98
2018-06-04T07:31:15.049Z,37.98
2018-06-04T07:32:15.071Z,38.08
2018-06-04T07:33:15.065Z,38.75
2018-06-04T07:34:15.334Z,38.75
2018-06-04T07:35:15.348Z,38.35
2018-06-04T07:36:15.100Z,38.57
2018-06-04T07:37:15.120Z,37.59
2018-06-04T07:38:15.122Z,37.88
2018-06-04T07:39:15.380Z,37.98
2018-06-04T07:40:15.139Z,37.69
2018-06-04T07:41:15.503Z,37.51
2018-06-04T07:42:15.152Z,37.49
2018-06-04T07:43:15.246Z,38.94
2018-06-04T07:44:15.185Z,39.04
2018-06-04T07:45:15.437Z,39.31
2018-06-04T07:46:15.445Z,39.49
2018-06-04T07:47:15.477Z,39.39
2018-06-04T07:48:15.470Z,39.39
2018-06-04T07:49:15.485Z,38.43
2018-06-04T07:50:15.239Z,37.67
2018-06-04T07:51:15.502Z,37.39
2018-06-04T07:52:15.250Z,36.63
2018-06-04T07:53:15.241Z,35.17
2018-06-04T07:54:15.531Z,35.39
2018-06-04T07:55:15.541Z,35
2018-06-04T07:56:15.545Z,36.29
2018-06-04T07:57:15.592Z,35.72
2018-06-04T07:58:15.563Z,35.5
2018-06-04T07:59:15.311Z,34.13
2018-06-04T08:00:15.606Z,35.21
2018-06-04T08:01:15.607Z,34.03
2018-06-04T08:02:15.616Z,33.77
2018-06-04T08:03:15.623Z,33.77
2018-06-04T08:04:15.669Z,34.44
2018-06-04T08:05:15.636Z,35.1
2018-06-04T08:06:15.409Z,35.78
2018-06-04T08:07:15.652Z,37.02
2018-06-04T08:08:15.679Z,38.55
2018-06-04T08:09:15.673Z,39.51
2018-06-04T08:10:15.763Z,39.2
2018-06-04T08:11:15.696Z,37.93
2018-06-04T08:12:15.439Z,37.96
2018-06-04T08:13:15.706Z,37.95
2018-06-04T08:14:15.723Z,38.32
2018-06-04T08:15:15.727Z,38.51
2018-06-04T08:16:15.737Z,38.81
2018-06-04T08:17:15.752Z,37.85
2018-06-04T08:18:15.494Z,37.77
2018-06-04T08:19:15.773Z,38.67
2018-06-04T08:20:15.781Z,36.53
2018-06-04T08:21:15.791Z,37
2018-06-04T08:22:15.534Z,37.69
2018-06-04T08:23:15.810Z,37.79
2018-06-04T08:24:15.807Z,38.55
2018-06-04T08:25:15.821Z,38.53
2018-06-04T08:26:15.572Z,39.12
2018-06-04T08:27:15.576Z,38.24
2018-06-04T08:28:15.851Z,37.37
2018-06-04T08:29:15.966Z,37.67
2018-06-04T08:30:15.605Z,37.37
2018-06-04T08:31:15.873Z,38.75
2018-06-04T08:32:15.889Z,39.69
2018-06-04T08:33:15.897Z,40.74
2018-06-04T08:34:15.907Z,41.7
2018-06-04T08:35:15.917Z,41.09
2018-06-04T08:36:15.917Z,40.04
2018-06-04T08:37:15.668Z,41.15
2018-06-04T08:38:15.679Z,38.94
2018-06-04T08:39:15.702Z,37.79
2018-06-04T08:40:16.006Z,36.65
2018-06-04T08:41:15.701Z,35.58
2018-06-04T08:42:15.973Z,36.68
2018-06-04T08:43:15.725Z,36.47
2018-06-04T08:44:15.734Z,37.23
2018-06-04T08:45:15.994Z,37.73
2018-06-04T08:46:15.751Z,36.27
2018-06-04T08:47:15.769Z,36.96
2018-06-04T08:48:16.045Z,38.6
2018-06-04T08:49:16.037Z,38.37
2018-06-04T08:50:16.044Z,38.45
2018-06-04T08:51:16.053Z,38.35
2018-06-04T08:52:16.081Z,38.94
2018-06-04T08:53:16.070Z,38.73
2018-06-04T08:54:16.084Z,39.88
2018-06-04T08:55:16.089Z,40.25
2018-06-04T08:56:16.154Z,41.31
2018-06-04T08:57:16.126Z,43.32
2018-06-04T08:58:16.137Z,44.54
2018-06-04T08:59:15.874Z,45.57
2018-06-04T09:00:15.867Z,46.15
2018-06-04T09:01:15.888Z,47
2018-06-04T09:02:16.145Z,47.08
2018-06-04T09:03:16.157Z,46.98
2018-06-04T09:04:15.906Z,47.37
2018-06-04T09:05:16.183Z,47.56
2018-06-04T09:06:16.193Z,49.51
2018-06-04T09:07:16.198Z,48.44
2018-06-04T09:08:16.194Z,47.86
2018-06-04T09:09:16.253Z,48.34
2018-06-04T09:10:16.207Z,48.13
2018-06-04T09:11:16.229Z,48.73
2018-06-04T09:12:16.239Z,49.61
2018-06-04T09:13:15.971Z,49.71
2018-06-04T09:14:16.239Z,48.44
2018-06-04T09:15:15.997Z,47.54
2018-06-04T09:16:15.999Z,47.76
2018-06-04T09:17:16.293Z,51.55
2018-06-04T09:18:16.268Z,49.02
2018-06-04T09:19:16.275Z,49.02
2018-06-04T09:20:16.284Z,47.37
2018-06-04T09:21:16.287Z,47.08
2018-06-04T09:22:16.290Z,47.76
2018-06-04T09:23:16.034Z,48.15
2018-06-04T09:24:16.042Z,47.56
2018-06-04T09:25:16.313Z,47.37
2018-06-04T09:26:16.062Z,48.25
2018-06-04T09:27:16.071Z,48.54
2018-06-04T09:28:16.071Z,48.17
2018-06-04T09:29:16.340Z,45.74
2018-06-04T09:30:16.344Z,45.74
2018-06-04T09:31:16.085Z,45.64
2018-06-04T09:32:16.120Z,46.03
2018-06-04T09:33:16.362Z,45.74
2018-06-04T09:34:16.107Z,46.01
2018-06-04T09:35:16.113Z,45.64
2018-06-04T09:36:16.412Z,44.96
2018-06-04T09:37:16.411Z,45.06
2018-06-04T09:38:16.404Z,44.06
2018-06-04T09:39:16.402Z,44.26
2018-06-04T09:40:16.156Z,45.52
2018-06-04T09:41:16.145Z,43.96
2018-06-04T09:42:16.156Z,43.89
2018-06-04T09:43:16.423Z,44.26
2018-06-04T09:44:16.487Z,43.5
2018-06-04T09:45:16.461Z,42.74
2018-06-04T09:46:16.465Z,42.96
2018-06-04T09:47:16.208Z,43.15
2018-06-04T09:48:16.201Z,43.05
2018-06-04T09:49:16.213Z,41.79
2018-06-04T09:50:16.467Z,41.2
2018-06-04T09:51:16.467Z,40.81
2018-06-04T09:52:16.483Z,42.06
2018-06-04T09:53:16.236Z,42.74
2018-06-04T09:54:16.224Z,42.25
2018-06-04T09:55:16.240Z,42.06
2018-06-04T09:56:16.505Z,41.11
2018-06-04T09:57:16.504Z,39.84
2018-06-04T09:58:16.508Z,39.18
2018-06-04T09:59:16.560Z,39.1
2018-06-04T10:00:16.265Z,39.61
2018-06-04T10:01:16.536Z,37.07
2018-06-04T10:02:16.536Z,36.58
2018-06-04T10:03:16.546Z,37.19
2018-06-04T10:04:17.346Z,36.9
2018-06-04T10:05:16.557Z,37.77
2018-06-04T10:06:16.299Z,36.7
2018-06-04T10:07:16.315Z,35.72
2018-06-04T10:08:16.575Z,35.43
2018-06-04T10:09:16.596Z,34.26
2018-06-04T10:10:16.605Z,34.44
2018-06-04T10:11:16.601Z,38.04
2018-06-04T10:12:16.358Z,37.05
2018-06-04T10:13:16.352Z,36.55
2018-06-04T10:14:16.672Z,37.33
2018-06-04T10:15:16.366Z,40.16
2018-06-04T10:16:16.627Z,39.37
2018-06-04T10:17:16.631Z,38.63
2018-06-04T10:18:16.635Z,39.12
2018-06-04T10:19:16.682Z,41.27
2018-06-04T10:20:16.665Z,39.12
2018-06-04T10:21:16.446Z,37.55
2018-06-04T10:22:16.681Z,37.65
2018-06-04T10:53:44.943Z,37.7
2018-06-04T10:54:44.650Z,39.06
2018-06-04T10:55:44.661Z,37.5
2018-06-04T10:56:44.651Z,36.24
2018-06-04T10:57:44.394Z,35.85
2018-06-04T10:58:44.404Z,36.04
2018-06-04T10:59:44.399Z,35.46
2018-06-04T11:00:44.686Z,34.78
2018-06-04T11:01:44.672Z,34.97
2018-06-04T11:02:44.429Z,35.18
2018-06-04T11:03:45.487Z,36.53
2018-06-04T11:04:44.703Z,36.65
2018-06-04T11:05:44.684Z,36.25
2018-06-04T11:06:44.711Z,36.65
2018-06-04T11:07:44.724Z,36.16
2018-06-04T11:08:44.452Z,36.57
2018-06-04T11:09:44.717Z,36.47
2018-06-04T11:10:44.738Z,36.08
2018-06-04T11:11:44.732Z,37.25
2018-06-04T11:12:44.732Z,36.27
2018-06-04T11:13:44.737Z,35.2
2018-06-04T11:14:44.807Z,36.19
2018-06-04T11:15:44.487Z,35.63
2018-06-04T11:16:44.754Z,36.99
2018-06-04T11:17:44.762Z,36.31
2018-06-04T11:18:44.796Z,35.35
2018-06-04T11:19:44.766Z,35.25
2018-06-04T11:20:44.788Z,36.82
2018-06-04T11:21:44.815Z,37.12
2018-06-04T11:22:44.795Z,35.17
2018-06-04T11:23:44.538Z,33.31
2018-06-04T11:24:44.556Z,36.16
2018-06-04T11:25:44.943Z,34.5
2018-06-04T11:26:44.821Z,34.29
2018-06-04T11:27:44.835Z,35.95
2018-06-04T11:28:44.832Z,35.48
2018-06-04T11:29:44.837Z,33.41
2018-06-04T11:30:44.579Z,34.97
2018-06-04T11:31:44.848Z,34.96
2018-06-04T11:32:44.596Z,34.97
2018-06-04T11:33:44.863Z,34.67
2018-06-04T11:34:44.873Z,34.86
2018-06-04T11:35:44.873Z,35.74
2018-06-04T11:36:44.912Z,34.86
2018-06-04T11:37:44.888Z,34.77
2018-06-04T11:38:44.677Z,33.2
2018-06-04T11:39:44.642Z,33.3
2018-06-04T11:40:44.906Z,30.74
2018-06-04T11:41:44.917Z,30.94
2018-06-04T11:42:44.944Z,31.33
2018-06-04T11:43:44.967Z,30.73
2018-06-04T11:44:44.947Z,30.84
2018-06-04T11:45:44.687Z,36.98
2018-06-04T11:46:44.950Z,36.41
2018-06-04T11:47:44.713Z,34.45
2018-06-04T11:48:44.956Z,33.59
2018-06-04T11:49:44.968Z,34.18
2018-06-04T11:50:44.974Z,33.02
2018-06-04T11:51:44.989Z,34.88
2018-06-04T11:52:44.994Z,34.19
2018-06-04T11:53:44.995Z,33.41
2018-06-04T11:54:45.007Z,32.63
2018-06-04T11:55:45.019Z,31.85
2018-06-04T11:56:45.157Z,31.08
2018-06-04T11:57:45.020Z,31.07
2018-06-04T11:58:45.082Z,32.42
2018-06-04T11:59:45.054Z,32.52
2018-06-04T12:00:45.118Z,33.67
2018-06-04T12:01:44.826Z,33.28
2018-06-04T12:02:45.070Z,34.84
2018-06-04T12:03:45.081Z,33.75
2018-06-04T12:04:45.072Z,34.63
2018-06-04T12:05:44.820Z,34.63
2018-06-04T12:06:44.829Z,33.15
2018-06-04T12:07:44.832Z,34.22
2018-06-04T12:08:44.841Z,36.08
2018-06-04T12:09:44.849Z,36.84
2018-06-04T12:10:45.107Z,35.57
2018-06-04T12:11:45.325Z,35.57
2018-06-04T12:12:45.132Z,37.7
2018-06-04T12:13:45.126Z,36.43
2018-06-04T12:14:45.141Z,35.55
2018-06-04T12:15:45.137Z,34.88
2018-06-04T12:16:44.887Z,37.43
2018-06-04T12:17:44.887Z,37.91
2018-06-04T12:18:44.911Z,37.43
2018-06-04T12:19:45.153Z,36.16
2018-06-04T12:20:45.166Z,36.84
2018-06-04T12:21:44.916Z,38.9
2018-06-04T12:22:45.177Z,37.45
2018-06-04T12:23:45.195Z,37.73
2018-06-04T12:24:45.192Z,37.73
2018-06-04T12:25:44.945Z,36.1
2018-06-04T12:26:45.216Z,34.83
2018-06-04T12:27:45.204Z,34.75
2018-06-04T12:28:44.958Z,34.26
2018-06-04T12:29:44.982Z,34.96
2018-06-04T12:30:45.230Z,32.52
2018-06-04T12:31:44.989Z,32.81
2018-06-04T12:32:45.236Z,33.2
2018-06-04T12:33:44.988Z,31.84
2018-06-04T12:34:45.278Z,32.52
2018-06-04T12:35:45.277Z,34.86
2018-06-04T12:36:45.300Z,35.72
2018-06-04T12:37:45.023Z,34.16
2018-06-04T12:38:45.282Z,35.72
2018-06-04T12:39:45.288Z,34.94
2018-06-04T12:40:45.289Z,36.1
2018-06-04T12:41:45.297Z,35.22
2018-06-04T12:42:45.054Z,34.92
2018-06-04T12:43:45.312Z,34.92
2018-06-04T12:44:45.339Z,36.86
2018-06-04T12:45:45.064Z,36.57
2018-06-04T12:46:45.333Z,36.08
2018-06-04T12:47:45.077Z,35.38
2018-06-04T12:48:45.345Z,37.23
2018-06-04T12:49:45.085Z,36.65
2018-06-04T12:50:45.359Z,37.13
2018-06-04T12:51:45.358Z,36.84
2018-06-04T12:52:45.107Z,36.35
2018-06-04T12:53:45.376Z,37.91
2018-06-04T12:54:45.533Z,36.74
2018-06-04T12:55:45.384Z,36.47
2018-06-04T12:56:45.131Z,35.2
2018-06-04T12:57:45.389Z,34.92
2018-06-04T12:58:45.396Z,33.36
2018-06-04T12:59:45.151Z,33.56
2018-06-04T13:00:45.155Z,33.26
2018-06-04T13:01:45.419Z,33.65
2018-06-04T13:02:45.424Z,33.85
2018-06-04T13:03:45.178Z,34.63
2018-06-04T13:04:45.606Z,34.83
2018-06-04T13:05:45.449Z,37.27
2018-06-04T13:06:45.448Z,34.34
2018-06-04T13:07:45.198Z,34.75
2018-06-04T13:08:45.200Z,36.51
2018-06-04T13:09:45.475Z,35.14
2018-06-04T13:10:45.224Z,33.48
2018-06-04T13:11:45.474Z,32.52
2018-06-04T13:12:45.486Z,32.52
2018-06-04T13:13:45.499Z,32.5
2018-06-04T13:14:45.237Z,32.5
2018-06-04T13:15:45.243Z,32.4
2018-06-04T13:16:45.265Z,34.18
2018-06-04T13:17:45.523Z,33.79
2018-06-04T13:18:45.526Z,32.42
2018-06-04T13:19:45.295Z,32.43
2018-06-04T13:20:45.536Z,34.78
2018-06-04T13:21:45.548Z,33.23
2018-06-04T13:22:45.551Z,33.43
2018-06-04T13:23:45.555Z,32.55
2018-06-04T13:24:50.382Z,31.67
2018-06-04T13:25:45.316Z,32.43
2018-06-04T13:26:45.578Z,32.81
2018-06-04T13:27:45.684Z,32.03
2018-06-04T13:28:45.348Z,33.97
2018-06-04T13:29:45.602Z,33.38
2018-06-04T13:30:45.608Z,32.68
2018-06-04T13:31:45.614Z,33.36
2018-06-04T13:32:45.618Z,33.75
2018-06-04T13:33:45.620Z,34.92